sensor_id;sensor_type;location;lat;lon;timestamp;P1;durP1;ratioP1;P2;durP2;ratioP2
7719;SDS011;3902;49.474;8.616;2023-02-01T00:00:00;4.67;;;3.30;;
7719;SDS011;3902;49.474;8.616;2023-02-01T00:02:25;4.47;;;3.40;;
7719;SDS011;3902;49.474;8.616;2023-02-01T00:04:51;3.57;;;3.27;;
7719;SDS011;3902;49.474;8.616;2023-02-01T00:07:16;3.20;;;2.90;;
7719;SDS011;3902;49.474;8.616;2023-02-01T00:09:42;4.00;;;3.20;;
7719;SDS011;3902;49.474;8.616;2023-02-01T00:12:07;4.63;;;3.70;;
7719;SDS011;3902;49.474;8.616;2023-02-01T00:14:33;4.20;;;3.40;;
7719;SDS011;3902;49.474;8.616;2023-02-01T00:17:03;3.53;;;3.10;;
7719;SDS011;3902;49.474;8.616;2023-02-01T00:19:31;3.87;;;3.47;;
7719;SDS011;3902;49.474;8.616;2023-02-01T00:21:56;4.80;;;3.43;;
7719;SDS011;3902;49.474;8.616;2023-02-01T00:24:22;3.97;;;3.67;;
7719;SDS011;3902;49.474;8.616;2023-02-01T00:26:47;4.10;;;3.20;;
7719;SDS011;3902;49.474;8.616;2023-02-01T00:29:15;5.00;;;3.70;;
7719;SDS011;3902;49.474;8.616;2023-02-01T00:31:41;4.20;;;3.60;;
7719;SDS011;3902;49.474;8.616;2023-02-01T00:34:09;4.40;;;3.93;;
7719;SDS011;3902;49.474;8.616;2023-02-01T00:36:36;4.40;;;4.00;;
7719;SDS011;3902;49.474;8.616;2023-02-01T00:39:02;5.00;;;3.80;;
7719;SDS011;3902;49.474;8.616;2023-02-01T00:41:27;5.07;;;3.57;;
7719;SDS011;3902;49.474;8.616;2023-02-01T00:43:53;4.67;;;3.30;;
7719;SDS011;3902;49.474;8.616;2023-02-01T00:46:19;4.53;;;4.03;;
7719;SDS011;3902;49.474;8.616;2023-02-01T00:48:44;4.57;;;3.57;;
7719;SDS011;3902;49.474;8.616;2023-02-01T00:51:11;3.97;;;3.57;;
7719;SDS011;3902;49.474;8.616;2023-02-01T00:53:38;4.20;;;3.80;;
7719;SDS011;3902;49.474;8.616;2023-02-01T00:56:04;3.67;;;3.20;;
7719;SDS011;3902;49.474;8.616;2023-02-01T00:58:30;4.30;;;3.90;;
7719;SDS011;3902;49.474;8.616;2023-02-01T01:01:03;6.10;;;4.13;;
7719;SDS011;3902;49.474;8.616;2023-02-01T01:03:36;4.07;;;3.60;;
7719;SDS011;3902;49.474;8.616;2023-02-01T01:06:05;5.33;;;4.50;;
7719;SDS011;3902;49.474;8.616;2023-02-01T01:08:32;4.40;;;3.70;;
7719;SDS011;3902;49.474;8.616;2023-02-01T01:10:59;5.33;;;4.00;;
7719;SDS011;3902;49.474;8.616;2023-02-01T01:13:28;7.03;;;4.80;;
7719;SDS011;3902;49.474;8.616;2023-02-01T01:15:54;5.70;;;4.73;;
7719;SDS011;3902;49.474;8.616;2023-02-01T01:18:19;6.07;;;4.70;;
7719;SDS011;3902;49.474;8.616;2023-02-01T01:20:45;5.07;;;4.40;;
7719;SDS011;3902;49.474;8.616;2023-02-01T01:23:12;6.63;;;4.80;;
7719;SDS011;3902;49.474;8.616;2023-02-01T01:25:38;4.97;;;4.47;;
7719;SDS011;3902;49.474;8.616;2023-02-01T01:28:04;5.23;;;4.10;;
7719;SDS011;3902;49.474;8.616;2023-02-01T01:30:31;4.87;;;4.37;;
7719;SDS011;3902;49.474;8.616;2023-02-01T01:32:56;5.57;;;4.60;;
7719;SDS011;3902;49.474;8.616;2023-02-01T01:35:22;6.20;;;3.87;;
7719;SDS011;3902;49.474;8.616;2023-02-01T01:37:47;5.40;;;4.60;;
7719;SDS011;3902;49.474;8.616;2023-02-01T01:40:13;4.60;;;4.20;;
7719;SDS011;3902;49.474;8.616;2023-02-01T01:42:39;4.00;;;3.37;;
7719;SDS011;3902;49.474;8.616;2023-02-01T01:45:08;5.20;;;3.80;;
7719;SDS011;3902;49.474;8.616;2023-02-01T01:47:43;3.70;;;3.40;;
7719;SDS011;3902;49.474;8.616;2023-02-01T01:50:14;4.60;;;3.70;;
7719;SDS011;3902;49.474;8.616;2023-02-01T01:52:43;4.53;;;4.00;;
7719;SDS011;3902;49.474;8.616;2023-02-01T01:55:13;4.50;;;3.83;;
7719;SDS011;3902;49.474;8.616;2023-02-01T01:57:42;4.33;;;3.93;;
7719;SDS011;3902;49.474;8.616;2023-02-01T02:00:12;5.03;;;3.77;;
7719;SDS011;3902;49.474;8.616;2023-02-01T02:02:40;5.37;;;3.70;;
7719;SDS011;3902;49.474;8.616;2023-02-01T02:05:08;5.03;;;3.83;;
7719;SDS011;3902;49.474;8.616;2023-02-01T02:07:37;3.83;;;3.43;;
7719;SDS011;3902;49.474;8.616;2023-02-01T02:10:06;4.23;;;3.47;;
7719;SDS011;3902;49.474;8.616;2023-02-01T02:12:35;5.20;;;4.10;;
7719;SDS011;3902;49.474;8.616;2023-02-01T02:15:04;4.20;;;3.80;;
7719;SDS011;3902;49.474;8.616;2023-02-01T02:20:40;3.73;;;3.30;;
7719;SDS011;3902;49.474;8.616;2023-02-01T02:34:39;3.70;;;3.30;;
7719;SDS011;3902;49.474;8.616;2023-02-01T02:37:18;5.57;;;3.50;;
7719;SDS011;3902;49.474;8.616;2023-02-01T02:42:26;3.80;;;3.50;;
7719;SDS011;3902;49.474;8.616;2023-02-01T02:45:27;4.47;;;3.67;;
7719;SDS011;3902;49.474;8.616;2023-02-01T02:48:29;4.23;;;3.80;;
7719;SDS011;3902;49.474;8.616;2023-02-01T02:51:05;6.77;;;4.60;;
7719;SDS011;3902;49.474;8.616;2023-02-01T02:54:29;4.97;;;4.43;;
7719;SDS011;3902;49.474;8.616;2023-02-01T02:57:10;4.13;;;3.77;;
7719;SDS011;3902;49.474;8.616;2023-02-01T03:00:15;4.63;;;4.23;;
7719;SDS011;3902;49.474;8.616;2023-02-01T03:03:06;5.10;;;4.50;;
7719;SDS011;3902;49.474;8.616;2023-02-01T03:05:51;6.43;;;4.87;;
7719;SDS011;3902;49.474;8.616;2023-02-01T03:10:52;5.33;;;4.70;;
7719;SDS011;3902;49.474;8.616;2023-02-01T03:13:27;8.77;;;5.30;;
7719;SDS011;3902;49.474;8.616;2023-02-01T03:21:24;6.50;;;4.50;;
7719;SDS011;3902;49.474;8.616;2023-02-01T03:23:56;5.13;;;4.40;;
7719;SDS011;3902;49.474;8.616;2023-02-01T03:26:27;5.33;;;4.43;;
7719;SDS011;3902;49.474;8.616;2023-02-01T03:28:56;6.33;;;4.87;;
7719;SDS011;3902;49.474;8.616;2023-02-01T03:31:26;5.57;;;4.37;;
7719;SDS011;3902;49.474;8.616;2023-02-01T03:33:53;6.50;;;4.43;;
7719;SDS011;3902;49.474;8.616;2023-02-01T03:36:29;5.33;;;4.70;;
7719;SDS011;3902;49.474;8.616;2023-02-01T03:39:13;5.33;;;4.20;;
7719;SDS011;3902;49.474;8.616;2023-02-01T03:41:45;5.80;;;4.60;;
7719;SDS011;3902;49.474;8.616;2023-02-01T03:49:45;6.47;;;4.33;;
7719;SDS011;3902;49.474;8.616;2023-02-01T03:52:18;5.30;;;4.20;;
7719;SDS011;3902;49.474;8.616;2023-02-01T03:54:48;4.50;;;4.10;;
7719;SDS011;3902;49.474;8.616;2023-02-01T03:57:16;4.43;;;4.00;;
7719;SDS011;3902;49.474;8.616;2023-02-01T03:59:46;4.97;;;4.43;;
7719;SDS011;3902;49.474;8.616;2023-02-01T04:02:12;5.17;;;3.93;;
7719;SDS011;3902;49.474;8.616;2023-02-01T04:04:37;7.20;;;4.53;;
7719;SDS011;3902;49.474;8.616;2023-02-01T04:07:03;6.20;;;3.77;;
7719;SDS011;3902;49.474;8.616;2023-02-01T04:09:29;4.10;;;3.70;;
7719;SDS011;3902;49.474;8.616;2023-02-01T04:11:55;5.60;;;3.80;;
7719;SDS011;3902;49.474;8.616;2023-02-01T04:14:20;5.23;;;4.20;;
7719;SDS011;3902;49.474;8.616;2023-02-01T04:16:46;5.13;;;4.23;;
7719;SDS011;3902;49.474;8.616;2023-02-01T04:19:11;5.70;;;5.10;;
7719;SDS011;3902;49.474;8.616;2023-02-01T04:21:37;5.90;;;4.60;;
7719;SDS011;3902;49.474;8.616;2023-02-01T04:24:03;5.17;;;4.60;;
7719;SDS011;3902;49.474;8.616;2023-02-01T04:26:28;6.13;;;4.50;;
7719;SDS011;3902;49.474;8.616;2023-02-01T04:28:54;6.17;;;4.30;;
7719;SDS011;3902;49.474;8.616;2023-02-01T04:31:19;6.33;;;4.60;;
7719;SDS011;3902;49.474;8.616;2023-02-01T04:33:50;6.73;;;4.97;;
7719;SDS011;3902;49.474;8.616;2023-02-01T04:36:19;5.07;;;4.27;;
7719;SDS011;3902;49.474;8.616;2023-02-01T04:38:47;7.23;;;5.33;;
7719;SDS011;3902;49.474;8.616;2023-02-01T04:41:13;5.80;;;4.97;;
7719;SDS011;3902;49.474;8.616;2023-02-01T04:43:39;5.43;;;4.50;;
7719;SDS011;3902;49.474;8.616;2023-02-01T04:46:04;5.73;;;4.67;;
7719;SDS011;3902;49.474;8.616;2023-02-01T04:48:30;6.03;;;4.90;;
7719;SDS011;3902;49.474;8.616;2023-02-01T04:50:55;6.20;;;5.37;;
7719;SDS011;3902;49.474;8.616;2023-02-01T04:53:21;6.70;;;5.30;;
7719;SDS011;3902;49.474;8.616;2023-02-01T04:55:47;7.33;;;5.40;;
7719;SDS011;3902;49.474;8.616;2023-02-01T04:58:14;6.13;;;4.90;;
7719;SDS011;3902;49.474;8.616;2023-02-01T05:00:39;7.00;;;5.03;;
7719;SDS011;3902;49.474;8.616;2023-02-01T05:03:05;5.33;;;4.70;;
7719;SDS011;3902;49.474;8.616;2023-02-01T05:05:30;5.77;;;5.17;;
7719;SDS011;3902;49.474;8.616;2023-02-01T05:07:56;11.40;;;5.17;;
7719;SDS011;3902;49.474;8.616;2023-02-01T05:10:21;6.93;;;5.20;;
7719;SDS011;3902;49.474;8.616;2023-02-01T05:12:47;6.50;;;5.60;;
7719;SDS011;3902;49.474;8.616;2023-02-01T05:15:31;6.30;;;5.20;;
7719;SDS011;3902;49.474;8.616;2023-02-01T05:17:57;8.27;;;5.30;;
7719;SDS011;3902;49.474;8.616;2023-02-01T05:20:23;6.07;;;5.07;;
7719;SDS011;3902;49.474;8.616;2023-02-01T05:22:49;7.43;;;5.17;;
7719;SDS011;3902;49.474;8.616;2023-02-01T05:25:15;5.67;;;4.80;;
7719;SDS011;3902;49.474;8.616;2023-02-01T05:27:40;6.80;;;5.40;;
7719;SDS011;3902;49.474;8.616;2023-02-01T05:30:06;7.80;;;4.90;;
7719;SDS011;3902;49.474;8.616;2023-02-01T05:32:33;5.80;;;5.20;;
7719;SDS011;3902;49.474;8.616;2023-02-01T05:34:58;9.07;;;4.80;;
7719;SDS011;3902;49.474;8.616;2023-02-01T05:37:24;5.20;;;4.70;;
7719;SDS011;3902;49.474;8.616;2023-02-01T05:39:49;5.40;;;4.90;;
7719;SDS011;3902;49.474;8.616;2023-02-01T05:42:15;5.27;;;4.00;;
7719;SDS011;3902;49.474;8.616;2023-02-01T05:44:40;5.00;;;4.40;;
7719;SDS011;3902;49.474;8.616;2023-02-01T05:47:06;7.77;;;4.50;;
7719;SDS011;3902;49.474;8.616;2023-02-01T05:49:32;4.77;;;4.10;;
7719;SDS011;3902;49.474;8.616;2023-02-01T05:51:58;4.97;;;4.17;;
7719;SDS011;3902;49.474;8.616;2023-02-01T05:54:23;5.53;;;4.53;;
7719;SDS011;3902;49.474;8.616;2023-02-01T05:56:49;5.57;;;4.53;;
7719;SDS011;3902;49.474;8.616;2023-02-01T05:59:14;7.47;;;5.10;;
7719;SDS011;3902;49.474;8.616;2023-02-01T06:01:40;4.90;;;4.40;;
7719;SDS011;3902;49.474;8.616;2023-02-01T06:04:05;5.70;;;5.00;;
7719;SDS011;3902;49.474;8.616;2023-02-01T06:06:31;7.83;;;5.10;;
7719;SDS011;3902;49.474;8.616;2023-02-01T06:08:57;5.80;;;5.20;;
7719;SDS011;3902;49.474;8.616;2023-02-01T06:11:22;9.37;;;5.13;;
7719;SDS011;3902;49.474;8.616;2023-02-01T06:13:48;7.47;;;5.77;;
7719;SDS011;3902;49.474;8.616;2023-02-01T06:16:13;4.80;;;4.40;;
7719;SDS011;3902;49.474;8.616;2023-02-01T06:18:40;4.60;;;4.10;;
7719;SDS011;3902;49.474;8.616;2023-02-01T06:21:06;5.87;;;4.40;;
7719;SDS011;3902;49.474;8.616;2023-02-01T06:23:32;5.07;;;4.40;;
7719;SDS011;3902;49.474;8.616;2023-02-01T06:26:02;5.10;;;4.30;;
7719;SDS011;3902;49.474;8.616;2023-02-01T06:28:30;6.40;;;4.53;;
7719;SDS011;3902;49.474;8.616;2023-02-01T06:30:57;6.57;;;4.17;;
7719;SDS011;3902;49.474;8.616;2023-02-01T06:33:26;4.27;;;3.87;;
7719;SDS011;3902;49.474;8.616;2023-02-01T06:36:01;4.80;;;3.97;;
7719;SDS011;3902;49.474;8.616;2023-02-01T06:38:28;5.00;;;4.00;;
7719;SDS011;3902;49.474;8.616;2023-02-01T06:40:55;4.87;;;3.10;;
7719;SDS011;3902;49.474;8.616;2023-02-01T06:43:22;5.73;;;3.73;;
7719;SDS011;3902;49.474;8.616;2023-02-01T06:45:49;6.77;;;4.27;;
7719;SDS011;3902;49.474;8.616;2023-02-01T06:48:15;6.00;;;3.80;;
7719;SDS011;3902;49.474;8.616;2023-02-01T06:50:40;5.83;;;3.63;;
7719;SDS011;3902;49.474;8.616;2023-02-01T06:53:06;5.70;;;4.40;;
7719;SDS011;3902;49.474;8.616;2023-02-01T06:55:31;6.20;;;3.90;;
7719;SDS011;3902;49.474;8.616;2023-02-01T06:57:57;9.77;;;4.97;;
7719;SDS011;3902;49.474;8.616;2023-02-01T07:00:22;6.27;;;4.53;;
7719;SDS011;3902;49.474;8.616;2023-02-01T07:02:48;5.50;;;4.50;;
7719;SDS011;3902;49.474;8.616;2023-02-01T07:05:15;6.27;;;4.50;;
7719;SDS011;3902;49.474;8.616;2023-02-01T07:07:41;12.00;;;5.30;;
7719;SDS011;3902;49.474;8.616;2023-02-01T07:10:07;6.90;;;5.40;;
7719;SDS011;3902;49.474;8.616;2023-02-01T07:12:33;5.53;;;4.30;;
7719;SDS011;3902;49.474;8.616;2023-02-01T07:14:58;7.83;;;4.33;;
7719;SDS011;3902;49.474;8.616;2023-02-01T07:17:24;6.20;;;4.40;;
7719;SDS011;3902;49.474;8.616;2023-02-01T07:19:49;7.73;;;4.63;;
7719;SDS011;3902;49.474;8.616;2023-02-01T07:22:18;6.20;;;4.40;;
7719;SDS011;3902;49.474;8.616;2023-02-01T07:24:43;6.50;;;4.47;;
7719;SDS011;3902;49.474;8.616;2023-02-01T07:27:09;5.20;;;4.20;;
7719;SDS011;3902;49.474;8.616;2023-02-01T07:29:34;5.20;;;3.80;;
7719;SDS011;3902;49.474;8.616;2023-02-01T07:32:00;5.13;;;3.90;;
7719;SDS011;3902;49.474;8.616;2023-02-01T07:34:27;4.27;;;3.87;;
7719;SDS011;3902;49.474;8.616;2023-02-01T07:36:52;5.60;;;3.70;;
7719;SDS011;3902;49.474;8.616;2023-02-01T07:39:18;6.43;;;3.77;;
7719;SDS011;3902;49.474;8.616;2023-02-01T07:41:43;4.73;;;3.70;;
7719;SDS011;3902;49.474;8.616;2023-02-01T07:44:10;5.73;;;3.40;;
7719;SDS011;3902;49.474;8.616;2023-02-01T07:46:35;4.43;;;3.77;;
7719;SDS011;3902;49.474;8.616;2023-02-01T07:49:01;3.93;;;3.40;;
7719;SDS011;3902;49.474;8.616;2023-02-01T07:51:27;4.77;;;3.77;;
7719;SDS011;3902;49.474;8.616;2023-02-01T07:53:52;6.27;;;3.50;;
7719;SDS011;3902;49.474;8.616;2023-02-01T07:56:18;4.77;;;3.50;;
7719;SDS011;3902;49.474;8.616;2023-02-01T07:58:48;6.43;;;4.40;;
7719;SDS011;3902;49.474;8.616;2023-02-01T08:01:16;5.13;;;3.90;;
7719;SDS011;3902;49.474;8.616;2023-02-01T08:03:49;4.30;;;3.63;;
7719;SDS011;3902;49.474;8.616;2023-02-01T08:06:19;5.67;;;4.27;;
7719;SDS011;3902;49.474;8.616;2023-02-01T08:08:45;5.13;;;3.70;;
7719;SDS011;3902;49.474;8.616;2023-02-01T08:11:14;4.90;;;3.70;;
7719;SDS011;3902;49.474;8.616;2023-02-01T08:13:41;6.90;;;4.00;;
7719;SDS011;3902;49.474;8.616;2023-02-01T08:16:07;5.40;;;4.40;;
7719;SDS011;3902;49.474;8.616;2023-02-01T08:18:35;4.03;;;3.30;;
7719;SDS011;3902;49.474;8.616;2023-02-01T08:21:04;6.33;;;3.80;;
7719;SDS011;3902;49.474;8.616;2023-02-01T08:23:32;8.60;;;4.10;;
7719;SDS011;3902;49.474;8.616;2023-02-01T08:26:06;10.83;;;3.80;;
7719;SDS011;3902;49.474;8.616;2023-02-01T08:28:34;9.00;;;3.93;;
7719;SDS011;3902;49.474;8.616;2023-02-01T08:31:08;10.40;;;4.40;;
7719;SDS011;3902;49.474;8.616;2023-02-01T08:33:36;8.43;;;3.83;;
7719;SDS011;3902;49.474;8.616;2023-02-01T08:36:03;10.70;;;3.97;;
7719;SDS011;3902;49.474;8.616;2023-02-01T08:38:30;9.30;;;3.97;;
7719;SDS011;3902;49.474;8.616;2023-02-01T08:40:55;6.90;;;3.80;;
7719;SDS011;3902;49.474;8.616;2023-02-01T08:43:21;6.17;;;3.70;;
7719;SDS011;3902;49.474;8.616;2023-02-01T08:45:47;5.90;;;3.50;;
7719;SDS011;3902;49.474;8.616;2023-02-01T08:48:12;7.70;;;3.73;;
7719;SDS011;3902;49.474;8.616;2023-02-01T08:50:38;6.37;;;3.43;;
7719;SDS011;3902;49.474;8.616;2023-02-01T08:53:03;6.60;;;3.67;;
7719;SDS011;3902;49.474;8.616;2023-02-01T08:55:29;8.87;;;4.30;;
7719;SDS011;3902;49.474;8.616;2023-02-01T08:57:54;5.43;;;3.60;;
7719;SDS011;3902;49.474;8.616;2023-02-01T09:00:21;9.73;;;4.70;;
7719;SDS011;3902;49.474;8.616;2023-02-01T09:02:46;9.87;;;3.73;;
7719;SDS011;3902;49.474;8.616;2023-02-01T09:05:12;9.33;;;4.77;;
7719;SDS011;3902;49.474;8.616;2023-02-01T09:07:39;11.10;;;4.63;;
7719;SDS011;3902;49.474;8.616;2023-02-01T09:10:05;8.80;;;3.93;;
7719;SDS011;3902;49.474;8.616;2023-02-01T09:12:31;9.67;;;4.93;;
7719;SDS011;3902;49.474;8.616;2023-02-01T09:14:58;12.33;;;5.97;;
7719;SDS011;3902;49.474;8.616;2023-02-01T09:17:27;11.13;;;5.30;;
7719;SDS011;3902;49.474;8.616;2023-02-01T09:19:53;13.30;;;5.10;;
7719;SDS011;3902;49.474;8.616;2023-02-01T09:22:19;12.23;;;4.73;;
7719;SDS011;3902;49.474;8.616;2023-02-01T09:24:44;15.40;;;5.20;;
7719;SDS011;3902;49.474;8.616;2023-02-01T09:27:10;13.33;;;5.80;;
7719;SDS011;3902;49.474;8.616;2023-02-01T09:29:35;11.10;;;6.03;;
7719;SDS011;3902;49.474;8.616;2023-02-01T09:32:01;14.30;;;5.50;;
7719;SDS011;3902;49.474;8.616;2023-02-01T09:34:27;13.80;;;5.30;;
7719;SDS011;3902;49.474;8.616;2023-02-01T09:36:52;15.30;;;4.80;;
7719;SDS011;3902;49.474;8.616;2023-02-01T09:39:18;10.53;;;4.90;;
7719;SDS011;3902;49.474;8.616;2023-02-01T09:42:01;11.07;;;5.77;;
7719;SDS011;3902;49.474;8.616;2023-02-01T09:47:10;11.70;;;5.10;;
7719;SDS011;3902;49.474;8.616;2023-02-01T09:49:47;17.60;;;4.83;;
7719;SDS011;3902;49.474;8.616;2023-02-01T09:52:18;12.47;;;4.20;;
7719;SDS011;3902;49.474;8.616;2023-02-01T09:54:50;14.53;;;4.73;;
7719;SDS011;3902;49.474;8.616;2023-02-01T09:57:24;14.63;;;4.30;;
7719;SDS011;3902;49.474;8.616;2023-02-01T10:00:14;7.70;;;3.80;;
7719;SDS011;3902;49.474;8.616;2023-02-01T10:02:48;10.80;;;4.10;;
7719;SDS011;3902;49.474;8.616;2023-02-01T10:05:16;13.20;;;4.10;;
7719;SDS011;3902;49.474;8.616;2023-02-01T10:10:38;13.40;;;5.10;;
7719;SDS011;3902;49.474;8.616;2023-02-01T10:13:26;11.67;;;4.53;;
7719;SDS011;3902;49.474;8.616;2023-02-01T10:16:10;16.10;;;4.90;;
7719;SDS011;3902;49.474;8.616;2023-02-01T10:26:29;9.57;;;4.20;;
7719;SDS011;3902;49.474;8.616;2023-02-01T10:29:03;7.63;;;3.47;;
7719;SDS011;3902;49.474;8.616;2023-02-01T10:31:35;8.37;;;3.50;;
7719;SDS011;3902;49.474;8.616;2023-02-01T10:34:18;13.77;;;4.20;;
7719;SDS011;3902;49.474;8.616;2023-02-01T10:36:54;7.30;;;3.43;;
7719;SDS011;3902;49.474;8.616;2023-02-01T10:39:33;9.53;;;4.10;;
7719;SDS011;3902;49.474;8.616;2023-02-01T10:41:58;7.47;;;3.90;;
7719;SDS011;3902;49.474;8.616;2023-02-01T10:44:27;11.10;;;3.50;;
7719;SDS011;3902;49.474;8.616;2023-02-01T10:46:55;9.20;;;4.20;;
7719;SDS011;3902;49.474;8.616;2023-02-01T10:49:22;9.60;;;4.20;;
7719;SDS011;3902;49.474;8.616;2023-02-01T10:52:10;10.67;;;4.13;;
7719;SDS011;3902;49.474;8.616;2023-02-01T10:54:41;11.63;;;4.10;;
7719;SDS011;3902;49.474;8.616;2023-02-01T10:57:25;13.50;;;4.80;;
7719;SDS011;3902;49.474;8.616;2023-02-01T10:59:54;13.70;;;4.80;;
7719;SDS011;3902;49.474;8.616;2023-02-01T11:02:31;10.53;;;4.13;;
7719;SDS011;3902;49.474;8.616;2023-02-01T11:05:01;16.17;;;4.80;;
7719;SDS011;3902;49.474;8.616;2023-02-01T11:07:28;10.97;;;3.93;;
7719;SDS011;3902;49.474;8.616;2023-02-01T11:09:55;9.67;;;4.00;;
7719;SDS011;3902;49.474;8.616;2023-02-01T11:12:30;12.60;;;4.30;;
7719;SDS011;3902;49.474;8.616;2023-02-01T11:15:11;12.80;;;4.00;;
7719;SDS011;3902;49.474;8.616;2023-02-01T11:17:46;8.07;;;3.30;;
7719;SDS011;3902;49.474;8.616;2023-02-01T11:20:35;13.53;;;4.23;;
7719;SDS011;3902;49.474;8.616;2023-02-01T11:23:10;8.10;;;3.60;;
7719;SDS011;3902;49.474;8.616;2023-02-01T11:25:49;10.53;;;4.40;;
7719;SDS011;3902;49.474;8.616;2023-02-01T11:28:20;14.03;;;4.43;;
7719;SDS011;3902;49.474;8.616;2023-02-01T11:30:53;11.80;;;3.67;;
7719;SDS011;3902;49.474;8.616;2023-02-01T11:33:22;10.47;;;4.00;;
7719;SDS011;3902;49.474;8.616;2023-02-01T11:35:54;15.30;;;4.70;;
7719;SDS011;3902;49.474;8.616;2023-02-01T11:40:55;13.93;;;4.33;;
7719;SDS011;3902;49.474;8.616;2023-02-01T11:43:37;11.67;;;4.70;;
7719;SDS011;3902;49.474;8.616;2023-02-01T11:46:17;11.57;;;4.53;;
7719;SDS011;3902;49.474;8.616;2023-02-01T11:48:49;14.93;;;5.57;;
7719;SDS011;3902;49.474;8.616;2023-02-01T11:51:21;10.20;;;4.10;;
7719;SDS011;3902;49.474;8.616;2023-02-01T11:54:00;10.23;;;4.33;;
7719;SDS011;3902;49.474;8.616;2023-02-01T11:59:53;15.70;;;4.40;;
7719;SDS011;3902;49.474;8.616;2023-02-01T12:02:26;12.60;;;3.60;;
7719;SDS011;3902;49.474;8.616;2023-02-01T12:05:05;18.50;;;5.17;;
7719;SDS011;3902;49.474;8.616;2023-02-01T12:11:05;13.90;;;4.87;;
7719;SDS011;3902;49.474;8.616;2023-02-01T12:13:55;12.67;;;4.80;;
7719;SDS011;3902;49.474;8.616;2023-02-01T12:16:29;21.33;;;5.50;;
7719;SDS011;3902;49.474;8.616;2023-02-01T12:25:27;17.57;;;5.80;;
7719;SDS011;3902;49.474;8.616;2023-02-01T12:30:49;15.17;;;4.93;;
7719;SDS011;3902;49.474;8.616;2023-02-01T12:33:26;11.40;;;4.13;;
7719;SDS011;3902;49.474;8.616;2023-02-01T12:36:09;15.57;;;5.00;;
7719;SDS011;3902;49.474;8.616;2023-02-01T12:38:52;14.23;;;4.83;;
7719;SDS011;3902;49.474;8.616;2023-02-01T12:44:22;12.50;;;4.63;;
7719;SDS011;3902;49.474;8.616;2023-02-01T12:46:51;13.10;;;4.70;;
7719;SDS011;3902;49.474;8.616;2023-02-01T12:52:05;15.37;;;4.13;;
7719;SDS011;3902;49.474;8.616;2023-02-01T12:54:38;13.03;;;4.03;;
7719;SDS011;3902;49.474;8.616;2023-02-01T12:57:10;16.20;;;4.43;;
7719;SDS011;3902;49.474;8.616;2023-02-01T12:59:46;13.20;;;4.23;;
7719;SDS011;3902;49.474;8.616;2023-02-01T13:02:25;13.70;;;4.47;;
7719;SDS011;3902;49.474;8.616;2023-02-01T13:05:15;12.57;;;3.77;;
7719;SDS011;3902;49.474;8.616;2023-02-01T13:07:47;16.67;;;4.40;;
7719;SDS011;3902;49.474;8.616;2023-02-01T13:13:03;9.90;;;3.97;;
7719;SDS011;3902;49.474;8.616;2023-02-01T13:15:41;16.87;;;4.87;;
7719;SDS011;3902;49.474;8.616;2023-02-01T13:18:16;10.17;;;4.20;;
7719;SDS011;3902;49.474;8.616;2023-02-01T13:23:22;12.03;;;3.83;;
7719;SDS011;3902;49.474;8.616;2023-02-01T13:25:50;14.63;;;4.30;;
7719;SDS011;3902;49.474;8.616;2023-02-01T13:28:25;11.87;;;4.10;;
7719;SDS011;3902;49.474;8.616;2023-02-01T13:41:23;10.30;;;3.67;;
7719;SDS011;3902;49.474;8.616;2023-02-01T13:43:53;11.20;;;3.50;;
7719;SDS011;3902;49.474;8.616;2023-02-01T13:46:28;10.60;;;4.20;;
7719;SDS011;3902;49.474;8.616;2023-02-01T13:48:55;12.97;;;4.53;;
7719;SDS011;3902;49.474;8.616;2023-02-01T13:51:40;12.43;;;3.80;;
7719;SDS011;3902;49.474;8.616;2023-02-01T13:54:23;12.70;;;3.40;;
7719;SDS011;3902;49.474;8.616;2023-02-01T13:56:51;12.90;;;4.00;;
7719;SDS011;3902;49.474;8.616;2023-02-01T14:05:01;9.73;;;3.50;;
7719;SDS011;3902;49.474;8.616;2023-02-01T14:07:27;7.30;;;3.70;;
7719;SDS011;3902;49.474;8.616;2023-02-01T14:09:53;13.83;;;4.23;;
7719;SDS011;3902;49.474;8.616;2023-02-01T14:15:27;8.60;;;3.70;;
7719;SDS011;3902;49.474;8.616;2023-02-01T14:17:54;13.47;;;4.10;;
7719;SDS011;3902;49.474;8.616;2023-02-01T14:23:09;11.80;;;3.93;;
7719;SDS011;3902;49.474;8.616;2023-02-01T14:25:39;12.57;;;4.20;;
7719;SDS011;3902;49.474;8.616;2023-02-01T14:28:23;10.57;;;3.40;;
7719;SDS011;3902;49.474;8.616;2023-02-01T14:30:51;12.03;;;4.00;;
7719;SDS011;3902;49.474;8.616;2023-02-01T14:33:22;11.63;;;3.30;;
7719;SDS011;3902;49.474;8.616;2023-02-01T14:35:58;12.20;;;3.47;;
7719;SDS011;3902;49.474;8.616;2023-02-01T14:38:31;11.27;;;3.23;;
7719;SDS011;3902;49.474;8.616;2023-02-01T14:41:15;9.90;;;3.57;;
7719;SDS011;3902;49.474;8.616;2023-02-01T14:49:31;9.03;;;3.33;;
7719;SDS011;3902;49.474;8.616;2023-02-01T14:51:59;13.50;;;4.03;;
7719;SDS011;3902;49.474;8.616;2023-02-01T14:54:29;7.97;;;3.43;;
7719;SDS011;3902;49.474;8.616;2023-02-01T14:56:55;12.50;;;3.70;;
7719;SDS011;3902;49.474;8.616;2023-02-01T14:59:21;12.80;;;3.70;;
7719;SDS011;3902;49.474;8.616;2023-02-01T15:01:50;8.73;;;3.27;;
7719;SDS011;3902;49.474;8.616;2023-02-01T15:04:19;12.40;;;3.23;;
7719;SDS011;3902;49.474;8.616;2023-02-01T15:06:51;11.37;;;4.03;;
7719;SDS011;3902;49.474;8.616;2023-02-01T15:14:29;7.20;;;3.43;;
7719;SDS011;3902;49.474;8.616;2023-02-01T15:16:57;13.07;;;4.40;;
7719;SDS011;3902;49.474;8.616;2023-02-01T15:19:24;8.77;;;3.70;;
7719;SDS011;3902;49.474;8.616;2023-02-01T15:21:52;11.40;;;3.80;;
7719;SDS011;3902;49.474;8.616;2023-02-01T15:24:24;10.23;;;3.83;;
7719;SDS011;3902;49.474;8.616;2023-02-01T15:26:51;10.70;;;4.30;;
7719;SDS011;3902;49.474;8.616;2023-02-01T15:29:18;12.90;;;3.80;;
7719;SDS011;3902;49.474;8.616;2023-02-01T15:31:46;15.83;;;3.97;;
7719;SDS011;3902;49.474;8.616;2023-02-01T15:34:14;9.87;;;3.63;;
7719;SDS011;3902;49.474;8.616;2023-02-01T15:36:41;12.53;;;4.00;;
7719;SDS011;3902;49.474;8.616;2023-02-01T15:39:15;11.60;;;3.87;;
7719;SDS011;3902;49.474;8.616;2023-02-01T15:42:12;17.07;;;4.20;;
7719;SDS011;3902;49.474;8.616;2023-02-01T15:44:44;7.77;;;3.73;;
7719;SDS011;3902;49.474;8.616;2023-02-01T15:47:23;9.37;;;3.87;;
7719;SDS011;3902;49.474;8.616;2023-02-01T15:49:52;6.87;;;3.20;;
7719;SDS011;3902;49.474;8.616;2023-02-01T15:52:24;7.93;;;3.60;;
7719;SDS011;3902;49.474;8.616;2023-02-01T15:55:02;9.80;;;3.57;;
7719;SDS011;3902;49.474;8.616;2023-02-01T15:57:42;10.73;;;3.10;;
7719;SDS011;3902;49.474;8.616;2023-02-01T16:00:30;13.80;;;4.10;;
7719;SDS011;3902;49.474;8.616;2023-02-01T16:03:05;9.00;;;3.97;;
7719;SDS011;3902;49.474;8.616;2023-02-01T16:05:53;11.23;;;3.43;;
7719;SDS011;3902;49.474;8.616;2023-02-01T16:08:22;8.97;;;3.73;;
7719;SDS011;3902;49.474;8.616;2023-02-01T16:10:50;8.43;;;3.50;;
7719;SDS011;3902;49.474;8.616;2023-02-01T16:13:25;10.17;;;3.67;;
7719;SDS011;3902;49.474;8.616;2023-02-01T16:15:51;11.27;;;3.90;;
7719;SDS011;3902;49.474;8.616;2023-02-01T16:18:16;14.77;;;3.30;;
7719;SDS011;3902;49.474;8.616;2023-02-01T16:20:42;11.27;;;3.67;;
7719;SDS011;3902;49.474;8.616;2023-02-01T16:23:08;8.40;;;3.77;;
7719;SDS011;3902;49.474;8.616;2023-02-01T16:25:35;10.50;;;3.53;;
7719;SDS011;3902;49.474;8.616;2023-02-01T16:28:01;8.43;;;3.63;;
7719;SDS011;3902;49.474;8.616;2023-02-01T16:30:27;9.53;;;3.83;;
7719;SDS011;3902;49.474;8.616;2023-02-01T16:32:53;12.90;;;4.20;;
7719;SDS011;3902;49.474;8.616;2023-02-01T16:35:24;17.57;;;3.97;;
7719;SDS011;3902;49.474;8.616;2023-02-01T16:38:01;12.97;;;4.40;;
7719;SDS011;3902;49.474;8.616;2023-02-01T16:40:37;11.20;;;4.93;;
7719;SDS011;3902;49.474;8.616;2023-02-01T16:43:13;13.30;;;4.70;;
7719;SDS011;3902;49.474;8.616;2023-02-01T16:45:39;16.43;;;6.20;;
7719;SDS011;3902;49.474;8.616;2023-02-01T16:48:07;15.10;;;6.07;;
7719;SDS011;3902;49.474;8.616;2023-02-01T16:50:33;15.50;;;5.57;;
7719;SDS011;3902;49.474;8.616;2023-02-01T16:52:58;11.00;;;4.03;;
7719;SDS011;3902;49.474;8.616;2023-02-01T16:55:24;12.27;;;4.20;;
7719;SDS011;3902;49.474;8.616;2023-02-01T16:57:50;18.43;;;4.63;;
7719;SDS011;3902;49.474;8.616;2023-02-01T17:00:16;17.63;;;4.70;;
7719;SDS011;3902;49.474;8.616;2023-02-01T17:02:42;12.00;;;4.33;;
7719;SDS011;3902;49.474;8.616;2023-02-01T17:05:08;11.93;;;4.90;;
7719;SDS011;3902;49.474;8.616;2023-02-01T17:07:34;13.90;;;4.87;;
7719;SDS011;3902;49.474;8.616;2023-02-01T17:10:03;12.33;;;4.73;;
7719;SDS011;3902;49.474;8.616;2023-02-01T17:12:31;16.53;;;5.83;;